Irini — SYZA — position and weather

sailwx.info

Track history (hours):
 
Tides and Currents Weather Stations Pressure Air Temp Water Temp Dewpoint Dewpoint Depression Visibility Wind Speed Wind Dir Waves Ship Positions

Irini

Last reported at 2017-Dec-11 17:00 UTC. Time now 2017-Dec-14 09:51 UTC.
Position N 38°02' E 023°31'.

Length 137 m; draft 7 m.

Type: Ship (hazmat cat A). MMSI: 240052000.

Date/timePositionNaut miles runAvg speedWind from/ knotsBaromVisibWave heightAir tempDewpointWater temp
2017-Dec-11 17:00N 38°02' E 023°31'1 2.0
2017-Dec-11 16:30N 38°01' E 023°31'2 4.6
2017-Dec-11 16:00N 37°59' E 023°33'4 7.7
2017-Dec-11 15:30N 37°56' E 023°35'2 3.7
2017-Dec-11 15:01N 37°54' E 023°35'0 0.3
2017-Dec-11 14:30N 37°54' E 023°35'0 0.2
2017-Dec-11 14:00N 37°54' E 023°35'0 0.3
2017-Dec-11 13:30N 37°54' E 023°35'0 0.4
2017-Dec-11 13:01N 37°53' E 023°36'0 0.3
2017-Dec-11 12:30N 37°53' E 023°36'0 0.4
2017-Dec-11 12:00N 37°53' E 023°36'3 6.4
2017-Dec-11 11:30N 37°51' E 023°39'510.5
2017-Dec-11 11:00N 37°46' E 023°42'510.7
2017-Dec-11 10:30N 37°42' E 023°45'510.7
2017-Dec-11 10:00N 37°39' E 023°51'510.7
2017-Dec-11 09:30N 37°37' E 023°58'510.7
2017-Dec-11 09:00N 37°38' E 024°04'510.7
2017-Dec-11 08:30N 37°40' E 024°10'711.2
2017-Dec-11 07:56N 37°44' E 024°17'711.3
2017-Dec-11 07:19N 37°49' E 024°23'510.7
2017-Dec-11 06:54N 37°52' E 024°27'410.4
2017-Dec-11 06:30N 37°54' E 024°31'710.3
2017-Dec-11 05:51N 37°60' E 024°36'510.4
2017-Dec-11 05:24N 38°05' E 024°37'1410.8
2017-Dec-11 04:06N 38°18' E 024°32'3411.0
2017-Dec-11 01:01N 38°46' E 024°08'  
2017-Dec-04 10:22N 38°01' E 023°31'0 0.0
2017-Dec-04 09:58N 38°01' E 023°31'0 0.1
2017-Dec-04 09:28N 38°01' E 023°31'0 0.0
2017-Dec-04 08:58N 38°01' E 023°31'0 0.1
2017-Dec-04 08:28N 38°01' E 023°31'0 0.0
2017-Dec-04 07:58N 38°01' E 023°31'0 0.1
2017-Dec-04 07:28N 38°01' E 023°31'0 0.0
2017-Dec-04 06:58N 38°01' E 023°31'0 0.1
2017-Dec-04 06:28N 38°01' E 023°31'0 0.0
2017-Dec-04 05:58N 38°01' E 023°31'0 0.0
2017-Dec-04 05:28N 38°01' E 023°31'0 0.0
2017-Dec-04 04:58N 38°01' E 023°31'0 0.1
2017-Dec-04 04:28N 38°01' E 023°31'0 0.0
2017-Dec-04 03:58N 38°01' E 023°31'0 0.1
2017-Dec-04 03:28N 38°01' E 023°31'0 0.1
2017-Dec-04 02:58N 38°01' E 023°31'0 0.0
2017-Dec-04 02:28N 38°01' E 023°31'0 0.0
2017-Dec-04 01:58N 38°01' E 023°31'0 0.0
2017-Dec-04 01:28N 38°01' E 023°31'0 0.0
2017-Dec-04 00:55N 38°01' E 023°31'0 0.1
2017-Dec-04 00:28N 38°01' E 023°31'0 0.0
2017-Dec-03 23:58N 38°01' E 023°31'0 0.1
2017-Dec-03 23:28N 38°01' E 023°31'0 0.0
2017-Dec-03 22:58N 38°01' E 023°31'0 0.0
2017-Dec-03 22:28N 38°01' E 023°31'0 0.1
2017-Dec-03 21:58N 38°01' E 023°31'0 0.0
2017-Dec-03 21:28N 38°01' E 023°31'0 0.1
2017-Dec-03 20:58N 38°01' E 023°31'0 0.0
2017-Dec-03 20:28N 38°01' E 023°31'0 0.0
2017-Dec-03 19:58N 38°01' E 023°31'0 0.0
2017-Dec-03 19:28N 38°01' E 023°31'0 0.0
2017-Dec-03 18:58N 38°01' E 023°31'0 0.0
2017-Dec-03 18:28N 38°01' E 023°31'0 0.1
2017-Dec-03 17:58N 38°01' E 023°31'0 0.1
2017-Dec-03 17:28N 38°01' E 023°31'0 0.0
2017-Dec-03 16:58N 38°01' E 023°31'0 0.0
2017-Dec-03 16:28N 38°01' E 023°31'0 0.0
2017-Dec-03 15:58N 38°01' E 023°31'0 0.0
2017-Dec-03 15:28N 38°01' E 023°31'0 0.0
2017-Dec-03 14:58N 38°01' E 023°31'0 0.0
2017-Dec-03 14:28N 38°01' E 023°31'0 0.0
2017-Dec-03 13:58N 38°01' E 023°31'0 0.0
2017-Dec-03 13:28N 38°01' E 023°31'0 0.0
2017-Dec-03 12:58N 38°01' E 023°31'0 0.0
2017-Dec-03 12:28N 38°01' E 023°31'0 0.0
2017-Dec-03 11:55N 38°01' E 023°31'0 0.0
2017-Dec-03 11:28N 38°01' E 023°31'0 0.0
2017-Dec-03 10:58N 38°01' E 023°31'0 0.0
2017-Dec-03 10:28N 38°01' E 023°31'0 0.0
2017-Dec-03 09:58N 38°01' E 023°31'0 0.0
2017-Dec-03 09:25N 38°01' E 023°31'0 0.2
2017-Dec-03 08:58N 38°01' E 023°31'0 0.0
2017-Dec-03 08:28N 38°01' E 023°31'0 0.0
2017-Dec-03 07:58N 38°01' E 023°31'0 0.0
2017-Dec-03 07:28N 38°01' E 023°31'0 0.0
2017-Dec-03 06:58N 38°01' E 023°31'0 0.0
2017-Dec-03 06:28N 38°01' E 023°31'0 0.0
2017-Dec-03 05:58N 38°01' E 023°31'0 0.0
2017-Dec-03 05:28N 38°01' E 023°31'0 0.0
2017-Dec-03 04:58N 38°01' E 023°31'0 0.0
2017-Dec-03 04:28N 38°01' E 023°31'0 0.0
2017-Dec-03 03:58N 38°01' E 023°31'0 0.0
2017-Dec-03 03:28N 38°01' E 023°31'0 0.0
2017-Dec-03 02:58N 38°01' E 023°31'0 0.0
2017-Dec-03 02:28N 38°01' E 023°31'0 0.0
2017-Dec-03 01:58N 38°01' E 023°31'0 0.0
2017-Dec-03 01:28N 38°01' E 023°31'0 0.0
2017-Dec-03 00:58N 38°01' E 023°31'0 0.0
2017-Dec-03 00:28N 38°01' E 023°31'0 0.0
2017-Dec-02 23:58N 38°01' E 023°31'0 0.0
2017-Dec-02 23:28N 38°01' E 023°31'0 0.0
2017-Dec-02 22:58N 38°01' E 023°31'0 0.0
2017-Dec-02 22:28N 38°01' E 023°31'0 0.0
2017-Dec-02 21:58N 38°01' E 023°31'0 0.0
2017-Dec-02 21:28N 38°01' E 023°31'0 0.0
2017-Dec-02 20:58N 38°01' E 023°31'0 0.0
2017-Dec-02 20:28N 38°01' E 023°31'0 0.0
2017-Dec-02 19:58N 38°01' E 023°31'0 0.0
2017-Dec-02 19:28N 38°01' E 023°31'0 0.0
2017-Dec-02 18:58N 38°01' E 023°31'0 0.0
2017-Dec-02 18:28N 38°01' E 023°31'0 0.0
2017-Dec-02 17:58N 38°01' E 023°31'0 0.0
2017-Dec-02 17:28N 38°01' E 023°31'0 0.0
2017-Dec-02 16:58N 38°01' E 023°31'0 0.0
2017-Dec-02 16:28N 38°01' E 023°31'0 0.0
2017-Dec-02 15:58N 38°01' E 023°31'0 0.0
2017-Dec-02 15:28N 38°01' E 023°31'0 0.0
2017-Dec-02 14:58N 38°01' E 023°31'0 0.0
2017-Dec-02 14:28N 38°01' E 023°31'0 0.0
2017-Dec-02 13:58N 38°01' E 023°31'0 0.0
2017-Dec-02 13:28N 38°01' E 023°31'0 0.0
2017-Dec-02 12:52N 38°01' E 023°31'0 0.0
2017-Dec-02 12:28N 38°01' E 023°31'0 0.0
2017-Dec-02 11:58N 38°01' E 023°31'0 0.0
2017-Dec-02 11:28N 38°01' E 023°31'0 0.0
2017-Dec-02 10:58N 38°01' E 023°31'0 0.0
2017-Dec-02 10:28N 38°01' E 023°31'0 0.0
2017-Dec-02 09:58N 38°01' E 023°31'0 0.0
2017-Dec-02 09:28N 38°01' E 023°31'0 0.0
2017-Dec-02 08:58N 38°01' E 023°31'0 0.0
2017-Dec-02 08:28N 38°01' E 023°31'0 0.0
2017-Dec-02 07:58N 38°01' E 023°31'0 0.0
2017-Dec-02 07:28N 38°01' E 023°31'0 0.0
2017-Dec-02 06:58N 38°01' E 023°31'0 0.0
2017-Dec-02 06:28N 38°01' E 023°31'0 0.0
2017-Dec-02 05:58N 38°01' E 023°31'0 0.0
2017-Dec-02 05:28N 38°01' E 023°31'0 0.0
2017-Dec-02 04:58N 38°01' E 023°31'0 0.0
2017-Dec-02 04:28N 38°01' E 023°31'0 0.0
2017-Dec-02 03:58N 38°01' E 023°31'0 0.0
2017-Dec-02 03:28N 38°01' E 023°31'0 0.0
2017-Dec-02 02:58N 38°01' E 023°31'0 0.0
2017-Dec-02 02:28N 38°01' E 023°31'0 0.0
2017-Dec-02 01:58N 38°01' E 023°31'0 0.0
2017-Dec-02 01:28N 38°01' E 023°31'0 0.0
2017-Dec-02 00:58N 38°01' E 023°31'0 0.0
2017-Dec-02 00:28N 38°01' E 023°31'0 0.0
2017-Dec-01 23:58N 38°01' E 023°31'0 0.0
2017-Dec-01 23:28N 38°01' E 023°31'0 0.0
2017-Dec-01 22:58N 38°01' E 023°31'0 0.0
2017-Dec-01 22:28N 38°01' E 023°31'0 0.0
2017-Dec-01 21:58N 38°01' E 023°31'0 0.0
2017-Dec-01 21:28N 38°01' E 023°31'0 0.0
2017-Dec-01 20:58N 38°01' E 023°31'0 0.0
2017-Dec-01 20:28N 38°01' E 023°31'0 0.1
2017-Dec-01 19:58N 38°01' E 023°31'0 0.0
2017-Dec-01 19:28N 38°01' E 023°31'0 0.0
2017-Dec-01 18:58N 38°01' E 023°31'0 0.1
2017-Dec-01 18:28N 38°01' E 023°31'0 0.0
2017-Dec-01 17:58N 38°01' E 023°31'0 0.0
2017-Dec-01 17:25N 38°01' E 023°31'  
Track history (hours):
 
Tides and Currents Weather Stations Pressure Air Temp Water Temp Dewpoint Dewpoint Depression Visibility Wind Speed Wind Dir Waves Ship Positions

Irini

Last reported at 2017-Dec-11 17:00 UTC. Time now 2017-Dec-14 09:51 UTC.
Position N 38°02' E 023°31'.

Length 137 m; draft 7 m.

Type: Ship (hazmat cat A). MMSI: 240052000.

Date/timePositionNaut miles runAvg speedWind from/ knotsBaromVisibWave heightAir tempDewpointWater temp
2017-Dec-11 17:00N 38°02' E 023°31'1 2.0
2017-Dec-11 16:30N 38°01' E 023°31'2 4.6
2017-Dec-11 16:00N 37°59' E 023°33'4 7.7
2017-Dec-11 15:30N 37°56' E 023°35'2 3.7
2017-Dec-11 15:01N 37°54' E 023°35'0 0.3
2017-Dec-11 14:30N 37°54' E 023°35'0 0.2
2017-Dec-11 14:00N 37°54' E 023°35'0 0.3
2017-Dec-11 13:30N 37°54' E 023°35'0 0.4
2017-Dec-11 13:01N 37°53' E 023°36'0 0.3
2017-Dec-11 12:30N 37°53' E 023°36'0 0.4
2017-Dec-11 12:00N 37°53' E 023°36'3 6.4
2017-Dec-11 11:30N 37°51' E 023°39'510.5
2017-Dec-11 11:00N 37°46' E 023°42'510.7
2017-Dec-11 10:30N 37°42' E 023°45'510.7
2017-Dec-11 10:00N 37°39' E 023°51'510.7
2017-Dec-11 09:30N 37°37' E 023°58'510.7
2017-Dec-11 09:00N 37°38' E 024°04'510.7
2017-Dec-11 08:30N 37°40' E 024°10'711.2
2017-Dec-11 07:56N 37°44' E 024°17'711.3
2017-Dec-11 07:19N 37°49' E 024°23'510.7
2017-Dec-11 06:54N 37°52' E 024°27'410.4
2017-Dec-11 06:30N 37°54' E 024°31'710.3
2017-Dec-11 05:51N 37°60' E 024°36'510.4
2017-Dec-11 05:24N 38°05' E 024°37'1410.8
2017-Dec-11 04:06N 38°18' E 024°32'3411.0
2017-Dec-11 01:01N 38°46' E 024°08'  
2017-Dec-04 10:22N 38°01' E 023°31'0 0.0
2017-Dec-04 09:58N 38°01' E 023°31'0 0.1
2017-Dec-04 09:28N 38°01' E 023°31'0 0.0
2017-Dec-04 08:58N 38°01' E 023°31'0 0.1
2017-Dec-04 08:28N 38°01' E 023°31'0 0.0
2017-Dec-04 07:58N 38°01' E 023°31'0 0.1
2017-Dec-04 07:28N 38°01' E 023°31'0 0.0
2017-Dec-04 06:58N 38°01' E 023°31'0 0.1
2017-Dec-04 06:28N 38°01' E 023°31'0 0.0
2017-Dec-04 05:58N 38°01' E 023°31'0 0.0
2017-Dec-04 05:28N 38°01' E 023°31'0 0.0
2017-Dec-04 04:58N 38°01' E 023°31'0 0.1
2017-Dec-04 04:28N 38°01' E 023°31'0 0.0
2017-Dec-04 03:58N 38°01' E 023°31'0 0.1
2017-Dec-04 03:28N 38°01' E 023°31'0 0.1
2017-Dec-04 02:58N 38°01' E 023°31'0 0.0
2017-Dec-04 02:28N 38°01' E 023°31'0 0.0
2017-Dec-04 01:58N 38°01' E 023°31'0 0.0
2017-Dec-04 01:28N 38°01' E 023°31'0 0.0
2017-Dec-04 00:55N 38°01' E 023°31'0 0.1
2017-Dec-04 00:28N 38°01' E 023°31'0 0.0
2017-Dec-03 23:58N 38°01' E 023°31'0 0.1
2017-Dec-03 23:28N 38°01' E 023°31'0 0.0
2017-Dec-03 22:58N 38°01' E 023°31'0 0.0
2017-Dec-03 22:28N 38°01' E 023°31'0 0.1
2017-Dec-03 21:58N 38°01' E 023°31'0 0.0
2017-Dec-03 21:28N 38°01' E 023°31'0 0.1
2017-Dec-03 20:58N 38°01' E 023°31'0 0.0
2017-Dec-03 20:28N 38°01' E 023°31'0 0.0
2017-Dec-03 19:58N 38°01' E 023°31'0 0.0
2017-Dec-03 19:28N 38°01' E 023°31'0 0.0
2017-Dec-03 18:58N 38°01' E 023°31'0 0.0
2017-Dec-03 18:28N 38°01' E 023°31'0 0.1
2017-Dec-03 17:58N 38°01' E 023°31'0 0.1
2017-Dec-03 17:28N 38°01' E 023°31'0 0.0
2017-Dec-03 16:58N 38°01' E 023°31'0 0.0
2017-Dec-03 16:28N 38°01' E 023°31'0 0.0
2017-Dec-03 15:58N 38°01' E 023°31'0 0.0
2017-Dec-03 15:28N 38°01' E 023°31'0 0.0
2017-Dec-03 14:58N 38°01' E 023°31'0 0.0
2017-Dec-03 14:28N 38°01' E 023°31'0 0.0
2017-Dec-03 13:58N 38°01' E 023°31'0 0.0
2017-Dec-03 13:28N 38°01' E 023°31'0 0.0
2017-Dec-03 12:58N 38°01' E 023°31'0 0.0
2017-Dec-03 12:28N 38°01' E 023°31'0 0.0
2017-Dec-03 11:55N 38°01' E 023°31'0 0.0
2017-Dec-03 11:28N 38°01' E 023°31'0 0.0
2017-Dec-03 10:58N 38°01' E 023°31'0 0.0
2017-Dec-03 10:28N 38°01' E 023°31'0 0.0
2017-Dec-03 09:58N 38°01' E 023°31'0 0.0
2017-Dec-03 09:25N 38°01' E 023°31'0 0.2
2017-Dec-03 08:58N 38°01' E 023°31'0 0.0
2017-Dec-03 08:28N 38°01' E 023°31'0 0.0
2017-Dec-03 07:58N 38°01' E 023°31'0 0.0
2017-Dec-03 07:28N 38°01' E 023°31'0 0.0
2017-Dec-03 06:58N 38°01' E 023°31'0 0.0
2017-Dec-03 06:28N 38°01' E 023°31'0 0.0
2017-Dec-03 05:58N 38°01' E 023°31'0 0.0
2017-Dec-03 05:28N 38°01' E 023°31'0 0.0
2017-Dec-03 04:58N 38°01' E 023°31'0 0.0
2017-Dec-03 04:28N 38°01' E 023°31'0 0.0
2017-Dec-03 03:58N 38°01' E 023°31'0 0.0
2017-Dec-03 03:28N 38°01' E 023°31'0 0.0
2017-Dec-03 02:58N 38°01' E 023°31'0 0.0
2017-Dec-03 02:28N 38°01' E 023°31'0 0.0
2017-Dec-03 01:58N 38°01' E 023°31'0 0.0
2017-Dec-03 01:28N 38°01' E 023°31'0 0.0
2017-Dec-03 00:58N 38°01' E 023°31'0 0.0
2017-Dec-03 00:28N 38°01' E 023°31'0 0.0
2017-Dec-02 23:58N 38°01' E 023°31'0 0.0
2017-Dec-02 23:28N 38°01' E 023°31'0 0.0
2017-Dec-02 22:58N 38°01' E 023°31'0 0.0
2017-Dec-02 22:28N 38°01' E 023°31'0 0.0
2017-Dec-02 21:58N 38°01' E 023°31'0 0.0
2017-Dec-02 21:28N 38°01' E 023°31'0 0.0
2017-Dec-02 20:58N 38°01' E 023°31'0 0.0
2017-Dec-02 20:28N 38°01' E 023°31'0 0.0
2017-Dec-02 19:58N 38°01' E 023°31'0 0.0
2017-Dec-02 19:28N 38°01' E 023°31'0 0.0
2017-Dec-02 18:58N 38°01' E 023°31'0 0.0
2017-Dec-02 18:28N 38°01' E 023°31'0 0.0
2017-Dec-02 17:58N 38°01' E 023°31'0 0.0
2017-Dec-02 17:28N 38°01' E 023°31'0 0.0
2017-Dec-02 16:58N 38°01' E 023°31'0 0.0
2017-Dec-02 16:28N 38°01' E 023°31'0 0.0
2017-Dec-02 15:58N 38°01' E 023°31'0 0.0
2017-Dec-02 15:28N 38°01' E 023°31'0 0.0
2017-Dec-02 14:58N 38°01' E 023°31'0 0.0
2017-Dec-02 14:28N 38°01' E 023°31'0 0.0
2017-Dec-02 13:58N 38°01' E 023°31'0 0.0
2017-Dec-02 13:28N 38°01' E 023°31'0 0.0
2017-Dec-02 12:52N 38°01' E 023°31'0 0.0
2017-Dec-02 12:28N 38°01' E 023°31'0 0.0
2017-Dec-02 11:58N 38°01' E 023°31'0 0.0
2017-Dec-02 11:28N 38°01' E 023°31'0 0.0
2017-Dec-02 10:58N 38°01' E 023°31'0 0.0
2017-Dec-02 10:28N 38°01' E 023°31'0 0.0
2017-Dec-02 09:58N 38°01' E 023°31'0 0.0
2017-Dec-02 09:28N 38°01' E 023°31'0 0.0
2017-Dec-02 08:58N 38°01' E 023°31'0 0.0
2017-Dec-02 08:28N 38°01' E 023°31'0 0.0
2017-Dec-02 07:58N 38°01' E 023°31'0 0.0
2017-Dec-02 07:28N 38°01' E 023°31'0 0.0
2017-Dec-02 06:58N 38°01' E 023°31'0 0.0
2017-Dec-02 06:28N 38°01' E 023°31'0 0.0
2017-Dec-02 05:58N 38°01' E 023°31'0 0.0
2017-Dec-02 05:28N 38°01' E 023°31'0 0.0
2017-Dec-02 04:58N 38°01' E 023°31'0 0.0
2017-Dec-02 04:28N 38°01' E 023°31'0 0.0
2017-Dec-02 03:58N 38°01' E 023°31'0 0.0
2017-Dec-02 03:28N 38°01' E 023°31'0 0.0
2017-Dec-02 02:58N 38°01' E 023°31'0 0.0
2017-Dec-02 02:28N 38°01' E 023°31'0 0.0
2017-Dec-02 01:58N 38°01' E 023°31'0 0.0
2017-Dec-02 01:28N 38°01' E 023°31'0 0.0
2017-Dec-02 00:58N 38°01' E 023°31'0 0.0
2017-Dec-02 00:28N 38°01' E 023°31'0 0.0
2017-Dec-01 23:58N 38°01' E 023°31'0 0.0
2017-Dec-01 23:28N 38°01' E 023°31'0 0.0
2017-Dec-01 22:58N 38°01' E 023°31'0 0.0
2017-Dec-01 22:28N 38°01' E 023°31'0 0.0
2017-Dec-01 21:58N 38°01' E 023°31'0 0.0
2017-Dec-01 21:28N 38°01' E 023°31'0 0.0
2017-Dec-01 20:58N 38°01' E 023°31'0 0.0
2017-Dec-01 20:28N 38°01' E 023°31'0 0.1
2017-Dec-01 19:58N 38°01' E 023°31'0 0.0
2017-Dec-01 19:28N 38°01' E 023°31'0 0.0
2017-Dec-01 18:58N 38°01' E 023°31'0 0.1
2017-Dec-01 18:28N 38°01' E 023°31'0 0.0
2017-Dec-01 17:58N 38°01' E 023°31'0 0.0
2017-Dec-01 17:25N 38°01' E 023°31'  

Dump ship's entire track history